Atka, AK

6:51 AM HADT on October 24, 2014 (GMT -0900)
Atka | Change Station
CLOSE
Current Station
Airport
Location: Atka,
Elevation: 56 ft
Nearby Weather Stations

Elev 56 ft 52.22 °N, 174.21 °W | Updated 15 minutes ago

Overcast
Overcast
45 °F
Feels Like 42 °F
N
5
Wind Variable Wind from NNW

Today
High -- | Low -- °F
--% Chance of Precip.
Yesterday
High -- | Low -- °F
Precip. -- in
9:18 AM 7:22 PM
New Moon, 1% visible
Pressure 29.99 in
Visibility 5.0 miles
Clouds Mostly Cloudy 1700 ft
Overcast 2300 ft
Windchill 42 °F
Dew Point 43 °F
Humidity 93%
Rainfall 0.00 in
Snow Depth Not available.
UV 0 out of 12
Pollen Not available.
Air Quality Not available.
Flu Activity Sporadic
METAR PAAK 241536Z 34004KT 5SM BKN017 OVC023 07/06 A2999 RMK AO1

More Conditions Fewer Conditions

Pressure 29.99 in
Visibility 5.0 miles
Clouds Mostly Cloudy 1700 ft
Overcast 2300 ft
Windchill 42 °F
Dew Point 43 °F
Humidity 93%
Rainfall 0.00 in
Snow Depth Not available.
UV 0 out of 12
Pollen Not available.
Air Quality Not available.
Flu Activity Sporadic
METAR PAAK 241536Z 34004KT 5SM BKN017 OVC023 07/06 A2999 RMK AO1

More Conditions Fewer Conditions

10-Day Weather Forecast

Almanac

Astronomy

Oct. 24, 2014 Rise Set
Actual Time 9:18 AM HADT 7:22 PM HADT
Civil Twilight 8:43 AM HADT 7:57 PM HADT
Nautical Twilight 8:03 AM HADT 8:37 PM HADT
Astronomical Twilight 7:24 AM HADT 9:16 PM HADT
Moon 10:17 AM HADT 8:04 PM HADT
Length of Visible Light 11h 14m
Length of Day
10h 04m
Tomorrow will be 3m 49s shorter.
New Moon, 1% of the Moon is Illuminated
Today
New Moon
Oct 30
First Quarter
Nov 6
Full
Nov 14
Last Quarter
Nov 22
New

Today's Extremes

State Highs State Lows

Community

WunderPhotos

Upload Photos

1,764,590 photos uploaded!

WunderBlogs® & News

Nearby

Snow Depth

Station Depth Elevation
Rocky Point 3 in 500 ft
Pargon Creek 0 in 300 ft
Port Graham 0 in 300 ft
Mcneil Canyon 1 in 1320 ft
MF Bradley River 0 in 2300 ft

Earthquake Activity

City Distance Mag. Time & Date
No recent earthquake activity has been reported nearby.
Minimum magnitude displayed is 2.5.

Coastal Water Temperatures

Place Temperature
No Stations Reporting

Nearby Weather Stations